Terminal Aerodrome Forecast
Issued by NWS

Home | Current Version | Previous Version | Text Only | Print | Product List | Glossary On
Versions: 1 2 3 4 5 6 7 8 9 10 11 12
000
FTAK31 PAJN 041723
TAFASI
TAF
PASI 041723Z 0418/0518 VRB03KT P6SM OVC080
     FM042100 16010KT P6SM VCSH SCT020 OVC050
      TEMPO 0423/0501 -RA OVC035
     FM050100 17010KT P6SM -RA OVC040
     FM050400 15013G25KT 6SM RA SCT015 OVC030 WS020/14030KT
     FM051300 14007KT P6SM -RA SCT015 OVC035=

USA.gov is the U.S. government's official web portal to all federal, state and local government web resources and services.